sensor_id;sensor_type;location;lat;lon;timestamp;temperature;humidity
35325;DHT22;35135;47.510;19.036;2023-04-03T00:00:30;22.50;49.60
35325;DHT22;35135;47.510;19.036;2023-04-03T00:02:57;22.50;49.70
35325;DHT22;35135;47.510;19.036;2023-04-03T00:05:22;22.50;49.70
35325;DHT22;35135;47.510;19.036;2023-04-03T00:07:48;22.40;49.50
35325;DHT22;35135;47.510;19.036;2023-04-03T00:10:15;22.50;49.60
35325;DHT22;35135;47.510;19.036;2023-04-03T00:12:41;22.40;49.60
35325;DHT22;35135;47.510;19.036;2023-04-03T00:15:07;22.40;49.60
35325;DHT22;35135;47.510;19.036;2023-04-03T00:17:33;22.40;49.70
35325;DHT22;35135;47.510;19.036;2023-04-03T00:19:59;22.40;49.50
35325;DHT22;35135;47.510;19.036;2023-04-03T00:22:24;22.40;49.60
35325;DHT22;35135;47.510;19.036;2023-04-03T00:24:52;22.40;49.60
35325;DHT22;35135;47.510;19.036;2023-04-03T00:27:17;22.40;49.50
35325;DHT22;35135;47.510;19.036;2023-04-03T00:29:43;22.40;49.50
35325;DHT22;35135;47.510;19.036;2023-04-03T00:32:09;22.40;49.50
35325;DHT22;35135;47.510;19.036;2023-04-03T00:34:34;22.40;49.50
35325;DHT22;35135;47.510;19.036;2023-04-03T00:37:00;22.40;49.50
35325;DHT22;35135;47.510;19.036;2023-04-03T00:39:26;22.40;49.50
35325;DHT22;35135;47.510;19.036;2023-04-03T00:41:51;22.40;49.50
35325;DHT22;35135;47.510;19.036;2023-04-03T00:47:06;22.40;49.40
35325;DHT22;35135;47.510;19.036;2023-04-03T00:49:32;22.40;49.40
35325;DHT22;35135;47.510;19.036;2023-04-03T00:51:58;22.40;49.40
35325;DHT22;35135;47.510;19.036;2023-04-03T00:54:25;22.40;49.40
35325;DHT22;35135;47.510;19.036;2023-04-03T00:56:53;22.40;49.40
35325;DHT22;35135;47.510;19.036;2023-04-03T00:59:27;22.30;49.40
35325;DHT22;35135;47.510;19.036;2023-04-03T01:01:56;22.30;49.40
35325;DHT22;35135;47.510;19.036;2023-04-03T01:04:30;22.30;49.40
35325;DHT22;35135;47.510;19.036;2023-04-03T01:06:59;22.30;49.30
35325;DHT22;35135;47.510;19.036;2023-04-03T01:09:26;22.40;49.40
35325;DHT22;35135;47.510;19.036;2023-04-03T01:11:53;22.30;49.30
35325;DHT22;35135;47.510;19.036;2023-04-03T01:14:18;22.30;49.30
35325;DHT22;35135;47.510;19.036;2023-04-03T01:16:53;22.30;49.30
35325;DHT22;35135;47.510;19.036;2023-04-03T01:19:19;22.30;49.30
35325;DHT22;35135;47.510;19.036;2023-04-03T01:22:10;22.30;49.30
35325;DHT22;35135;47.510;19.036;2023-04-03T01:24:40;22.30;49.30
35325;DHT22;35135;47.510;19.036;2023-04-03T01:27:07;22.30;49.30
35325;DHT22;35135;47.510;19.036;2023-04-03T01:29:36;22.30;49.30
35325;DHT22;35135;47.510;19.036;2023-04-03T01:32:03;22.30;49.30
35325;DHT22;35135;47.510;19.036;2023-04-03T01:34:29;22.30;49.30
35325;DHT22;35135;47.510;19.036;2023-04-03T01:36:55;22.30;49.40
35325;DHT22;35135;47.510;19.036;2023-04-03T01:39:21;22.30;49.30
35325;DHT22;35135;47.510;19.036;2023-04-03T01:41:47;22.30;49.30
35325;DHT22;35135;47.510;19.036;2023-04-03T01:44:14;22.30;49.30
35325;DHT22;35135;47.510;19.036;2023-04-03T01:46:40;22.20;49.20
35325;DHT22;35135;47.510;19.036;2023-04-03T01:49:08;22.20;49.20
35325;DHT22;35135;47.510;19.036;2023-04-03T01:51:33;22.20;49.30
35325;DHT22;35135;47.510;19.036;2023-04-03T01:53:59;22.20;49.20
35325;DHT22;35135;47.510;19.036;2023-04-03T01:56:25;22.20;49.30
35325;DHT22;35135;47.510;19.036;2023-04-03T01:58:52;22.20;49.20
35325;DHT22;35135;47.510;19.036;2023-04-03T02:01:17;22.20;49.20
35325;DHT22;35135;47.510;19.036;2023-04-03T02:03:43;22.20;49.20
35325;DHT22;35135;47.510;19.036;2023-04-03T02:06:09;22.20;49.20
35325;DHT22;35135;47.510;19.036;2023-04-03T02:08:35;22.20;49.20
35325;DHT22;35135;47.510;19.036;2023-04-03T02:11:01;22.20;49.20
35325;DHT22;35135;47.510;19.036;2023-04-03T02:13:26;22.20;49.20
35325;DHT22;35135;47.510;19.036;2023-04-03T02:15:52;22.20;49.20
35325;DHT22;35135;47.510;19.036;2023-04-03T02:18:18;22.20;49.20
35325;DHT22;35135;47.510;19.036;2023-04-03T02:20:43;22.20;49.20
35325;DHT22;35135;47.510;19.036;2023-04-03T02:23:09;22.20;49.20
35325;DHT22;35135;47.510;19.036;2023-04-03T02:25:35;22.20;49.20
35325;DHT22;35135;47.510;19.036;2023-04-03T02:28:01;22.20;49.20
35325;DHT22;35135;47.510;19.036;2023-04-03T02:30:26;22.20;49.20
35325;DHT22;35135;47.510;19.036;2023-04-03T02:32:52;22.20;49.20
35325;DHT22;35135;47.510;19.036;2023-04-03T02:35:18;22.20;49.20
35325;DHT22;35135;47.510;19.036;2023-04-03T02:37:44;22.20;49.20
35325;DHT22;35135;47.510;19.036;2023-04-03T02:40:10;22.20;49.20
35325;DHT22;35135;47.510;19.036;2023-04-03T02:42:37;22.10;49.10
35325;DHT22;35135;47.510;19.036;2023-04-03T02:45:03;22.20;49.10
35325;DHT22;35135;47.510;19.036;2023-04-03T02:47:29;22.10;49.10
35325;DHT22;35135;47.510;19.036;2023-04-03T02:49:54;22.10;49.60
35325;DHT22;35135;47.510;19.036;2023-04-03T02:52:20;22.10;49.10
35325;DHT22;35135;47.510;19.036;2023-04-03T02:54:46;22.10;49.10
35325;DHT22;35135;47.510;19.036;2023-04-03T02:57:11;22.10;49.10
35325;DHT22;35135;47.510;19.036;2023-04-03T02:59:37;22.10;49.10
35325;DHT22;35135;47.510;19.036;2023-04-03T03:02:07;22.10;49.10
35325;DHT22;35135;47.510;19.036;2023-04-03T03:04:34;22.10;49.00
35325;DHT22;35135;47.510;19.036;2023-04-03T03:07:00;22.10;49.00
35325;DHT22;35135;47.510;19.036;2023-04-03T03:09:26;22.10;49.00
35325;DHT22;35135;47.510;19.036;2023-04-03T03:11:52;22.10;49.00
35325;DHT22;35135;47.510;19.036;2023-04-03T03:14:17;22.10;49.00
35325;DHT22;35135;47.510;19.036;2023-04-03T03:16:43;22.10;49.00
35325;DHT22;35135;47.510;19.036;2023-04-03T03:19:09;22.10;49.00
35325;DHT22;35135;47.510;19.036;2023-04-03T03:21:35;22.10;49.00
35325;DHT22;35135;47.510;19.036;2023-04-03T03:24:00;22.10;49.00
35325;DHT22;35135;47.510;19.036;2023-04-03T03:26:26;22.10;49.00
35325;DHT22;35135;47.510;19.036;2023-04-03T03:28:52;22.10;49.00
35325;DHT22;35135;47.510;19.036;2023-04-03T03:31:17;22.10;49.00
35325;DHT22;35135;47.510;19.036;2023-04-03T03:33:43;22.10;49.00
35325;DHT22;35135;47.510;19.036;2023-04-03T03:36:09;22.10;49.00
35325;DHT22;35135;47.510;19.036;2023-04-03T03:38:34;22.10;49.00
35325;DHT22;35135;47.510;19.036;2023-04-03T03:41:00;22.10;49.00
35325;DHT22;35135;47.510;19.036;2023-04-03T03:43:26;22.10;49.00
35325;DHT22;35135;47.510;19.036;2023-04-03T03:45:53;22.00;48.90
35325;DHT22;35135;47.510;19.036;2023-04-03T03:48:20;22.00;48.90
35325;DHT22;35135;47.510;19.036;2023-04-03T03:50:46;22.00;48.90
35325;DHT22;35135;47.510;19.036;2023-04-03T03:53:12;22.00;49.00
35325;DHT22;35135;47.510;19.036;2023-04-03T03:55:38;22.00;48.90
35325;DHT22;35135;47.510;19.036;2023-04-03T03:58:04;22.00;48.90
35325;DHT22;35135;47.510;19.036;2023-04-03T04:00:29;22.10;49.00
35325;DHT22;35135;47.510;19.036;2023-04-03T04:02:55;22.00;48.90
35325;DHT22;35135;47.510;19.036;2023-04-03T04:05:21;22.00;49.00
35325;DHT22;35135;47.510;19.036;2023-04-03T04:07:47;22.00;49.00
35325;DHT22;35135;47.510;19.036;2023-04-03T04:10:13;22.00;48.90
35325;DHT22;35135;47.510;19.036;2023-04-03T04:12:39;22.00;48.90
35325;DHT22;35135;47.510;19.036;2023-04-03T04:15:05;22.00;48.90
35325;DHT22;35135;47.510;19.036;2023-04-03T04:17:31;22.00;48.90
35325;DHT22;35135;47.510;19.036;2023-04-03T04:19:57;22.00;48.90
35325;DHT22;35135;47.510;19.036;2023-04-03T04:22:22;22.00;48.90
35325;DHT22;35135;47.510;19.036;2023-04-03T04:24:48;22.00;49.50
35325;DHT22;35135;47.510;19.036;2023-04-03T04:27:14;22.00;48.90
35325;DHT22;35135;47.510;19.036;2023-04-03T04:29:41;22.00;48.90
35325;DHT22;35135;47.510;19.036;2023-04-03T04:32:07;22.00;48.90
35325;DHT22;35135;47.510;19.036;2023-04-03T04:34:34;22.00;48.90
35325;DHT22;35135;47.510;19.036;2023-04-03T04:36:59;22.00;48.90
35325;DHT22;35135;47.510;19.036;2023-04-03T04:39:25;21.90;48.90
35325;DHT22;35135;47.510;19.036;2023-04-03T04:41:51;21.90;48.90
35325;DHT22;35135;47.510;19.036;2023-04-03T04:44:16;22.00;48.90
35325;DHT22;35135;47.510;19.036;2023-04-03T04:46:42;21.90;48.80
35325;DHT22;35135;47.510;19.036;2023-04-03T04:49:08;22.00;48.90
35325;DHT22;35135;47.510;19.036;2023-04-03T04:51:33;21.90;48.80
35325;DHT22;35135;47.510;19.036;2023-04-03T04:53:59;21.90;48.80
35325;DHT22;35135;47.510;19.036;2023-04-03T04:56:25;21.90;48.90
35325;DHT22;35135;47.510;19.036;2023-04-03T04:58:51;21.90;48.80
35325;DHT22;35135;47.510;19.036;2023-04-03T05:01:17;21.90;48.80
35325;DHT22;35135;47.510;19.036;2023-04-03T05:03:44;21.90;48.60
35325;DHT22;35135;47.510;19.036;2023-04-03T05:06:09;21.90;48.70
35325;DHT22;35135;47.510;19.036;2023-04-03T05:08:35;21.90;48.70
35325;DHT22;35135;47.510;19.036;2023-04-03T05:11:01;21.90;48.70
35325;DHT22;35135;47.510;19.036;2023-04-03T05:13:27;21.90;48.80
35325;DHT22;35135;47.510;19.036;2023-04-03T05:15:52;21.90;48.80
35325;DHT22;35135;47.510;19.036;2023-04-03T05:18:18;21.90;49.00
35325;DHT22;35135;47.510;19.036;2023-04-03T05:20:44;21.90;49.10
35325;DHT22;35135;47.510;19.036;2023-04-03T05:23:10;21.90;49.10
35325;DHT22;35135;47.510;19.036;2023-04-03T05:25:39;21.90;49.10
35325;DHT22;35135;47.510;19.036;2023-04-03T05:28:05;21.90;49.10
35325;DHT22;35135;47.510;19.036;2023-04-03T05:30:31;21.90;49.00
35325;DHT22;35135;47.510;19.036;2023-04-03T05:32:58;21.90;49.00
35325;DHT22;35135;47.510;19.036;2023-04-03T05:35:23;21.90;48.70
35325;DHT22;35135;47.510;19.036;2023-04-03T05:37:49;21.90;48.70
35325;DHT22;35135;47.510;19.036;2023-04-03T05:40:15;21.90;48.70
35325;DHT22;35135;47.510;19.036;2023-04-03T05:42:41;22.00;48.70
35325;DHT22;35135;47.510;19.036;2023-04-03T05:45:07;21.90;48.80
35325;DHT22;35135;47.510;19.036;2023-04-03T05:47:33;21.90;48.70
35325;DHT22;35135;47.510;19.036;2023-04-03T05:49:58;22.00;48.60
35325;DHT22;35135;47.510;19.036;2023-04-03T05:52:29;21.90;47.60
35325;DHT22;35135;47.510;19.036;2023-04-03T05:54:56;21.90;47.80
35325;DHT22;35135;47.510;19.036;2023-04-03T05:57:22;21.90;47.80
35325;DHT22;35135;47.510;19.036;2023-04-03T05:59:48;21.90;47.90
35325;DHT22;35135;47.510;19.036;2023-04-03T06:02:19;21.90;47.60
35325;DHT22;35135;47.510;19.036;2023-04-03T06:04:46;21.90;47.30
35325;DHT22;35135;47.510;19.036;2023-04-03T06:07:21;21.90;47.40
35325;DHT22;35135;47.510;19.036;2023-04-03T06:09:51;21.90;47.30
35325;DHT22;35135;47.510;19.036;2023-04-03T06:12:17;22.00;47.40
35325;DHT22;35135;47.510;19.036;2023-04-03T06:14:43;22.10;47.50
35325;DHT22;35135;47.510;19.036;2023-04-03T06:17:09;22.20;47.30
35325;DHT22;35135;47.510;19.036;2023-04-03T06:19:35;22.40;47.00
35325;DHT22;35135;47.510;19.036;2023-04-03T06:22:01;22.60;46.90
35325;DHT22;35135;47.510;19.036;2023-04-03T06:24:28;22.60;46.40
35325;DHT22;35135;47.510;19.036;2023-04-03T06:26:54;22.60;46.40
35325;DHT22;35135;47.510;19.036;2023-04-03T06:29:20;22.60;46.40
35325;DHT22;35135;47.510;19.036;2023-04-03T06:31:46;22.50;46.40
35325;DHT22;35135;47.510;19.036;2023-04-03T06:34:12;22.50;46.50
35325;DHT22;35135;47.510;19.036;2023-04-03T06:36:39;22.50;46.60
35325;DHT22;35135;47.510;19.036;2023-04-03T06:39:05;22.50;46.50
35325;DHT22;35135;47.510;19.036;2023-04-03T06:41:31;22.60;46.30
35325;DHT22;35135;47.510;19.036;2023-04-03T06:43:57;22.60;46.30
35325;DHT22;35135;47.510;19.036;2023-04-03T06:46:24;22.50;46.30
35325;DHT22;35135;47.510;19.036;2023-04-03T06:48:51;22.60;46.40
35325;DHT22;35135;47.510;19.036;2023-04-03T06:51:26;22.50;46.40
35325;DHT22;35135;47.510;19.036;2023-04-03T06:53:53;22.50;46.40
35325;DHT22;35135;47.510;19.036;2023-04-03T06:56:20;22.50;46.50
35325;DHT22;35135;47.510;19.036;2023-04-03T06:58:46;22.40;46.50
35325;DHT22;35135;47.510;19.036;2023-04-03T07:01:14;22.50;46.60
35325;DHT22;35135;47.510;19.036;2023-04-03T07:03:40;22.50;46.60
35325;DHT22;35135;47.510;19.036;2023-04-03T07:06:07;22.50;46.70
35325;DHT22;35135;47.510;19.036;2023-04-03T07:08:34;22.50;46.60
35325;DHT22;35135;47.510;19.036;2023-04-03T07:11:00;22.40;46.50
35325;DHT22;35135;47.510;19.036;2023-04-03T07:13:26;22.50;46.50
35325;DHT22;35135;47.510;19.036;2023-04-03T07:15:52;22.40;46.50
35325;DHT22;35135;47.510;19.036;2023-04-03T07:18:18;22.40;46.60
35325;DHT22;35135;47.510;19.036;2023-04-03T07:20:44;22.40;46.60
35325;DHT22;35135;47.510;19.036;2023-04-03T07:23:10;22.40;46.60
35325;DHT22;35135;47.510;19.036;2023-04-03T07:25:36;22.40;46.80
35325;DHT22;35135;47.510;19.036;2023-04-03T07:28:03;22.30;46.60
35325;DHT22;35135;47.510;19.036;2023-04-03T07:30:29;22.30;47.20
35325;DHT22;35135;47.510;19.036;2023-04-03T07:32:55;22.30;46.80
35325;DHT22;35135;47.510;19.036;2023-04-03T07:35:21;22.30;46.60
35325;DHT22;35135;47.510;19.036;2023-04-03T07:37:47;22.30;46.80
35325;DHT22;35135;47.510;19.036;2023-04-03T07:40:12;22.30;46.80
35325;DHT22;35135;47.510;19.036;2023-04-03T07:42:38;22.30;46.80
35325;DHT22;35135;47.510;19.036;2023-04-03T07:45:04;22.30;46.90
35325;DHT22;35135;47.510;19.036;2023-04-03T07:47:30;22.30;46.80
35325;DHT22;35135;47.510;19.036;2023-04-03T07:49:57;22.30;46.80
35325;DHT22;35135;47.510;19.036;2023-04-03T07:52:23;22.20;46.80
35325;DHT22;35135;47.510;19.036;2023-04-03T07:54:48;22.30;46.80
35325;DHT22;35135;47.510;19.036;2023-04-03T07:57:14;22.20;46.80
35325;DHT22;35135;47.510;19.036;2023-04-03T07:59:40;22.20;46.80
35325;DHT22;35135;47.510;19.036;2023-04-03T08:02:11;22.20;46.90
35325;DHT22;35135;47.510;19.036;2023-04-03T08:04:37;22.20;46.90
35325;DHT22;35135;47.510;19.036;2023-04-03T08:07:03;22.20;46.90
35325;DHT22;35135;47.510;19.036;2023-04-03T08:09:29;22.20;46.80
35325;DHT22;35135;47.510;19.036;2023-04-03T08:11:55;22.30;46.90
35325;DHT22;35135;47.510;19.036;2023-04-03T08:14:20;22.20;46.80
35325;DHT22;35135;47.510;19.036;2023-04-03T08:16:47;22.20;46.80
35325;DHT22;35135;47.510;19.036;2023-04-03T08:19:14;22.20;46.80
35325;DHT22;35135;47.510;19.036;2023-04-03T08:21:41;22.20;47.30
35325;DHT22;35135;47.510;19.036;2023-04-03T08:24:07;22.20;46.90
35325;DHT22;35135;47.510;19.036;2023-04-03T08:26:34;22.20;46.80
35325;DHT22;35135;47.510;19.036;2023-04-03T08:29:00;22.20;46.80
35325;DHT22;35135;47.510;19.036;2023-04-03T08:31:26;22.30;46.70
35325;DHT22;35135;47.510;19.036;2023-04-03T08:33:53;22.30;46.70
35325;DHT22;35135;47.510;19.036;2023-04-03T08:36:24;22.30;46.70
35325;DHT22;35135;47.510;19.036;2023-04-03T08:38:51;22.30;46.60
35325;DHT22;35135;47.510;19.036;2023-04-03T08:41:22;22.30;46.70
35325;DHT22;35135;47.510;19.036;2023-04-03T08:43:56;22.30;46.60
35325;DHT22;35135;47.510;19.036;2023-04-03T08:46:33;22.30;46.60
35325;DHT22;35135;47.510;19.036;2023-04-03T08:49:01;22.30;46.70
35325;DHT22;35135;47.510;19.036;2023-04-03T08:51:27;22.30;46.60
35325;DHT22;35135;47.510;19.036;2023-04-03T08:53:59;22.30;46.50
35325;DHT22;35135;47.510;19.036;2023-04-03T08:56:27;22.30;46.50
35325;DHT22;35135;47.510;19.036;2023-04-03T08:59:12;22.30;46.50
35325;DHT22;35135;47.510;19.036;2023-04-03T09:01:40;22.30;46.50
35325;DHT22;35135;47.510;19.036;2023-04-03T09:04:12;22.30;46.50
35325;DHT22;35135;47.510;19.036;2023-04-03T09:06:39;22.30;46.60
35325;DHT22;35135;47.510;19.036;2023-04-03T09:15:05;22.30;46.50
35325;DHT22;35135;47.510;19.036;2023-04-03T09:22:51;22.40;46.50
35325;DHT22;35135;47.510;19.036;2023-04-03T09:27:47;22.40;46.50
35325;DHT22;35135;47.510;19.036;2023-04-03T09:30:16;22.40;46.50
35325;DHT22;35135;47.510;19.036;2023-04-03T09:32:45;22.40;46.50
35325;DHT22;35135;47.510;19.036;2023-04-03T09:35:30;22.40;46.40
35325;DHT22;35135;47.510;19.036;2023-04-03T09:40:43;22.40;46.50
35325;DHT22;35135;47.510;19.036;2023-04-03T09:43:27;22.40;46.40
35325;DHT22;35135;47.510;19.036;2023-04-03T09:45:54;22.40;46.40
35325;DHT22;35135;47.510;19.036;2023-04-03T09:48:25;22.40;46.40
35325;DHT22;35135;47.510;19.036;2023-04-03T09:58:51;22.40;46.40
35325;DHT22;35135;47.510;19.036;2023-04-03T10:01:35;22.30;46.40
35325;DHT22;35135;47.510;19.036;2023-04-03T10:04:15;22.30;46.40
35325;DHT22;35135;47.510;19.036;2023-04-03T10:06:47;22.30;46.50
35325;DHT22;35135;47.510;19.036;2023-04-03T10:09:23;22.30;46.50
35325;DHT22;35135;47.510;19.036;2023-04-03T10:12:09;22.30;46.50
35325;DHT22;35135;47.510;19.036;2023-04-03T10:14:36;22.20;46.50
35325;DHT22;35135;47.510;19.036;2023-04-03T10:20:02;22.20;46.60
35325;DHT22;35135;47.510;19.036;2023-04-03T10:23:14;22.20;46.60
35325;DHT22;35135;47.510;19.036;2023-04-03T10:31:02;22.20;46.70
35325;DHT22;35135;47.510;19.036;2023-04-03T10:36:25;22.20;46.70
35325;DHT22;35135;47.510;19.036;2023-04-03T10:39:17;22.20;46.70
35325;DHT22;35135;47.510;19.036;2023-04-03T10:41:56;22.20;46.70
35325;DHT22;35135;47.510;19.036;2023-04-03T10:52:39;22.10;46.80
35325;DHT22;35135;47.510;19.036;2023-04-03T10:57:58;22.10;46.70
35325;DHT22;35135;47.510;19.036;2023-04-03T11:00:45;22.10;46.70
35325;DHT22;35135;47.510;19.036;2023-04-03T11:03:39;22.10;46.70
35325;DHT22;35135;47.510;19.036;2023-04-03T11:06:08;22.10;46.70
35325;DHT22;35135;47.510;19.036;2023-04-03T11:11:15;22.10;46.70
35325;DHT22;35135;47.510;19.036;2023-04-03T11:16:18;22.10;46.70
35325;DHT22;35135;47.510;19.036;2023-04-03T11:18:59;22.10;46.70
35325;DHT22;35135;47.510;19.036;2023-04-03T11:21:33;22.10;46.70
35325;DHT22;35135;47.510;19.036;2023-04-03T11:24:03;22.10;46.70
35325;DHT22;35135;47.510;19.036;2023-04-03T11:26:35;22.10;46.70
35325;DHT22;35135;47.510;19.036;2023-04-03T11:29:03;22.10;46.70
35325;DHT22;35135;47.510;19.036;2023-04-03T11:34:59;22.10;46.70
35325;DHT22;35135;47.510;19.036;2023-04-03T11:37:43;22.10;46.70
35325;DHT22;35135;47.510;19.036;2023-04-03T11:42:46;22.10;46.70
35325;DHT22;35135;47.510;19.036;2023-04-03T11:50:44;22.10;46.60
35325;DHT22;35135;47.510;19.036;2023-04-03T11:55:46;22.10;46.50
35325;DHT22;35135;47.510;19.036;2023-04-03T12:00:50;22.10;46.50
35325;DHT22;35135;47.510;19.036;2023-04-03T12:05:56;22.00;46.50
35325;DHT22;35135;47.510;19.036;2023-04-03T12:13:35;22.00;46.60
35325;DHT22;35135;47.510;19.036;2023-04-03T12:16:03;22.00;46.60
35325;DHT22;35135;47.510;19.036;2023-04-03T12:21:14;22.00;46.70
35325;DHT22;35135;47.510;19.036;2023-04-03T12:26:27;22.00;46.60
35325;DHT22;35135;47.510;19.036;2023-04-03T12:28:55;22.00;46.70
35325;DHT22;35135;47.510;19.036;2023-04-03T12:31:24;22.00;46.70
35325;DHT22;35135;47.510;19.036;2023-04-03T12:40:27;22.10;46.70
35325;DHT22;35135;47.510;19.036;2023-04-03T12:48:38;22.10;46.70
35325;DHT22;35135;47.510;19.036;2023-04-03T12:51:05;22.10;46.80
35325;DHT22;35135;47.510;19.036;2023-04-03T12:53:33;22.10;46.70
35325;DHT22;35135;47.510;19.036;2023-04-03T12:56:28;22.10;46.70
35325;DHT22;35135;47.510;19.036;2023-04-03T12:58:56;22.10;46.70
35325;DHT22;35135;47.510;19.036;2023-04-03T13:01:37;22.10;46.70
35325;DHT22;35135;47.510;19.036;2023-04-03T13:04:03;22.10;46.80
35325;DHT22;35135;47.510;19.036;2023-04-03T13:06:43;22.10;46.80
35325;DHT22;35135;47.510;19.036;2023-04-03T13:09:30;22.10;46.60
35325;DHT22;35135;47.510;19.036;2023-04-03T13:14:34;22.10;46.70
35325;DHT22;35135;47.510;19.036;2023-04-03T13:17:20;22.10;46.70
35325;DHT22;35135;47.510;19.036;2023-04-03T13:19:46;22.10;46.70
35325;DHT22;35135;47.510;19.036;2023-04-03T13:22:36;22.00;46.60
35325;DHT22;35135;47.510;19.036;2023-04-03T13:25:10;22.10;46.60
35325;DHT22;35135;47.510;19.036;2023-04-03T13:27:38;22.00;46.60
35325;DHT22;35135;47.510;19.036;2023-04-03T13:30:05;22.00;46.60
35325;DHT22;35135;47.510;19.036;2023-04-03T13:32:32;22.10;46.60
35325;DHT22;35135;47.510;19.036;2023-04-03T13:34:58;22.10;46.60
35325;DHT22;35135;47.510;19.036;2023-04-03T13:37:29;22.10;46.60
35325;DHT22;35135;47.510;19.036;2023-04-03T13:40:12;22.10;46.50
35325;DHT22;35135;47.510;19.036;2023-04-03T13:42:40;22.10;46.50
35325;DHT22;35135;47.510;19.036;2023-04-03T13:47:41;22.10;46.50
35325;DHT22;35135;47.510;19.036;2023-04-03T13:56:06;22.10;46.50
35325;DHT22;35135;47.510;19.036;2023-04-03T13:58:34;22.10;46.50
35325;DHT22;35135;47.510;19.036;2023-04-03T14:03:55;22.00;46.30
35325;DHT22;35135;47.510;19.036;2023-04-03T14:06:22;22.00;46.20
35325;DHT22;35135;47.510;19.036;2023-04-03T14:08:48;22.00;46.50
35325;DHT22;35135;47.510;19.036;2023-04-03T14:11:19;22.00;46.50
35325;DHT22;35135;47.510;19.036;2023-04-03T14:13:47;22.10;46.60
35325;DHT22;35135;47.510;19.036;2023-04-03T14:16:20;22.00;46.60
35325;DHT22;35135;47.510;19.036;2023-04-03T14:18:47;22.00;46.60
35325;DHT22;35135;47.510;19.036;2023-04-03T14:21:14;22.00;46.60
35325;DHT22;35135;47.510;19.036;2023-04-03T14:23:41;22.00;46.60
35325;DHT22;35135;47.510;19.036;2023-04-03T14:26:19;22.00;46.60
35325;DHT22;35135;47.510;19.036;2023-04-03T14:28:47;22.00;46.60
35325;DHT22;35135;47.510;19.036;2023-04-03T14:31:14;22.00;46.60
35325;DHT22;35135;47.510;19.036;2023-04-03T14:33:40;22.00;46.60
35325;DHT22;35135;47.510;19.036;2023-04-03T14:36:17;22.00;46.60
35325;DHT22;35135;47.510;19.036;2023-04-03T14:38:44;22.00;46.60
35325;DHT22;35135;47.510;19.036;2023-04-03T14:41:13;22.00;46.60
35325;DHT22;35135;47.510;19.036;2023-04-03T14:43:39;22.00;46.60
35325;DHT22;35135;47.510;19.036;2023-04-03T14:46:08;22.00;46.60
35325;DHT22;35135;47.510;19.036;2023-04-03T14:48:35;22.00;46.60
35325;DHT22;35135;47.510;19.036;2023-04-03T14:51:00;22.00;46.60
35325;DHT22;35135;47.510;19.036;2023-04-03T14:53:26;22.00;46.60
35325;DHT22;35135;47.510;19.036;2023-04-03T14:55:54;21.90;46.50
35325;DHT22;35135;47.510;19.036;2023-04-03T14:58:21;22.00;46.60
35325;DHT22;35135;47.510;19.036;2023-04-03T15:00:47;21.90;46.50
35325;DHT22;35135;47.510;19.036;2023-04-03T15:03:22;21.90;46.60
35325;DHT22;35135;47.510;19.036;2023-04-03T15:05:49;21.90;46.50
35325;DHT22;35135;47.510;19.036;2023-04-03T15:08:26;21.90;46.50
35325;DHT22;35135;47.510;19.036;2023-04-03T15:10:55;21.90;46.60
35325;DHT22;35135;47.510;19.036;2023-04-03T15:13:22;21.90;46.50
35325;DHT22;35135;47.510;19.036;2023-04-03T15:15:48;21.90;46.50
35325;DHT22;35135;47.510;19.036;2023-04-03T15:18:23;21.90;46.40
35325;DHT22;35135;47.510;19.036;2023-04-03T15:20:52;21.90;46.40
35325;DHT22;35135;47.510;19.036;2023-04-03T15:23:18;21.90;46.60
35325;DHT22;35135;47.510;19.036;2023-04-03T15:25:45;21.90;46.50
35325;DHT22;35135;47.510;19.036;2023-04-03T15:28:21;21.90;46.50
35325;DHT22;35135;47.510;19.036;2023-04-03T15:30:47;21.90;46.50
35325;DHT22;35135;47.510;19.036;2023-04-03T15:33:13;21.90;46.50
35325;DHT22;35135;47.510;19.036;2023-04-03T15:35:41;21.90;46.60
35325;DHT22;35135;47.510;19.036;2023-04-03T15:38:07;21.80;46.60
35325;DHT22;35135;47.510;19.036;2023-04-03T15:40:33;21.80;46.60
35325;DHT22;35135;47.510;19.036;2023-04-03T15:43:00;21.80;46.60
35325;DHT22;35135;47.510;19.036;2023-04-03T15:45:28;21.80;46.60
35325;DHT22;35135;47.510;19.036;2023-04-03T15:47:55;21.80;46.60
35325;DHT22;35135;47.510;19.036;2023-04-03T15:50:21;21.80;46.60
35325;DHT22;35135;47.510;19.036;2023-04-03T15:52:48;21.80;46.60
35325;DHT22;35135;47.510;19.036;2023-04-03T15:55:23;21.80;46.60
35325;DHT22;35135;47.510;19.036;2023-04-03T15:57:49;21.80;46.60
35325;DHT22;35135;47.510;19.036;2023-04-03T16:00:15;21.80;46.40
35325;DHT22;35135;47.510;19.036;2023-04-03T16:02:43;21.80;46.50
35325;DHT22;35135;47.510;19.036;2023-04-03T16:05:09;21.80;46.60
35325;DHT22;35135;47.510;19.036;2023-04-03T16:07:37;21.80;46.60
35325;DHT22;35135;47.510;19.036;2023-04-03T16:10:04;21.70;44.80
35325;DHT22;35135;47.510;19.036;2023-04-03T16:12:30;21.70;44.50
35325;DHT22;35135;47.510;19.036;2023-04-03T16:14:55;21.70;45.50
35325;DHT22;35135;47.510;19.036;2023-04-03T16:17:21;21.70;46.30
35325;DHT22;35135;47.510;19.036;2023-04-03T16:19:47;21.70;45.60
35325;DHT22;35135;47.510;19.036;2023-04-03T16:22:13;21.70;45.50
35325;DHT22;35135;47.510;19.036;2023-04-03T16:24:39;21.70;45.50
35325;DHT22;35135;47.510;19.036;2023-04-03T16:27:04;21.70;46.10
35325;DHT22;35135;47.510;19.036;2023-04-03T16:29:30;21.70;46.30
35325;DHT22;35135;47.510;19.036;2023-04-03T16:31:57;21.70;46.10
35325;DHT22;35135;47.510;19.036;2023-04-03T16:34:23;21.70;46.30
35325;DHT22;35135;47.510;19.036;2023-04-03T16:36:51;21.70;46.30
35325;DHT22;35135;47.510;19.036;2023-04-03T16:39:18;21.70;46.10
35325;DHT22;35135;47.510;19.036;2023-04-03T16:41:43;21.70;46.10
35325;DHT22;35135;47.510;19.036;2023-04-03T16:44:10;21.70;46.10
35325;DHT22;35135;47.510;19.036;2023-04-03T16:46:36;21.70;45.70
35325;DHT22;35135;47.510;19.036;2023-04-03T16:49:03;21.70;45.40
35325;DHT22;35135;47.510;19.036;2023-04-03T16:51:28;21.70;46.00
35325;DHT22;35135;47.510;19.036;2023-04-03T16:53:55;21.70;45.00
35325;DHT22;35135;47.510;19.036;2023-04-03T16:56:21;21.60;42.30
35325;DHT22;35135;47.510;19.036;2023-04-03T16:58:47;21.50;40.60
35325;DHT22;35135;47.510;19.036;2023-04-03T17:01:16;21.40;41.60
35325;DHT22;35135;47.510;19.036;2023-04-03T17:03:42;21.40;43.20
35325;DHT22;35135;47.510;19.036;2023-04-03T17:06:08;21.40;42.80
35325;DHT22;35135;47.510;19.036;2023-04-03T17:08:44;21.40;43.30
35325;DHT22;35135;47.510;19.036;2023-04-03T17:11:10;21.40;42.60